createdAt,value
2023-05-06T00:00:52.386Z,54.73
2023-05-06T00:03:18.573Z,54.94
2023-05-06T00:05:44.759Z,54.95
2023-05-06T00:08:10.871Z,54.82
2023-05-06T00:10:37.099Z,54.41
2023-05-06T00:13:03.315Z,55.37
2023-05-06T00:15:31.971Z,54.65
2023-05-06T00:17:58.724Z,54.78
2023-05-06T00:20:24.935Z,54.18
2023-05-06T00:22:51.056Z,54.30
2023-05-06T00:25:17.154Z,52.90
2023-05-06T00:27:43.293Z,52.35
2023-05-06T00:30:09.529Z,51.80
2023-05-06T00:32:35.697Z,52.74
2023-05-06T00:35:01.840Z,52.44
2023-05-06T00:37:27.944Z,52.91
2023-05-06T00:39:54.042Z,52.86
2023-05-06T00:42:20.134Z,52.71
2023-05-06T00:44:46.320Z,52.36
2023-05-06T00:47:12.447Z,51.44
2023-05-06T00:49:38.588Z,52.03
2023-05-06T00:52:04.702Z,51.35
2023-05-06T00:54:30.811Z,52.02
2023-05-06T00:56:57.122Z,52.13
2023-05-06T00:59:23.233Z,53.01
2023-05-06T01:01:49.675Z,53.47
2023-05-06T01:04:15.791Z,52.85
2023-05-06T01:06:42.191Z,52.11
2023-05-06T01:09:08.305Z,52.52
2023-05-06T01:11:34.421Z,53.13
2023-05-06T01:14:00.641Z,54.15
2023-05-06T01:16:26.899Z,54.96
2023-05-06T01:18:53.024Z,53.97
2023-05-06T01:21:19.155Z,53.59
2023-05-06T01:23:45.379Z,53.14
2023-05-06T01:26:11.527Z,53.39
2023-05-06T01:28:37.658Z,53.08
2023-05-06T01:31:03.873Z,53.91
2023-05-06T01:33:30.030Z,54.21
2023-05-06T01:35:56.266Z,54.23
2023-05-06T01:38:22.497Z,54.25
2023-05-06T01:40:48.616Z,54.47
2023-05-06T01:43:14.806Z,54.49
2023-05-06T01:45:41.222Z,54.29
2023-05-06T01:48:07.381Z,54.59
2023-05-06T01:50:33.532Z,55.44
2023-05-06T01:52:59.672Z,55.16
2023-05-06T01:55:25.809Z,55.13
2023-05-06T01:57:52.128Z,54.72
2023-05-06T02:00:18.241Z,54.67
2023-05-06T02:02:44.465Z,55.41
2023-05-06T02:05:10.842Z,55.42
2023-05-06T02:07:37.140Z,55.43
2023-05-06T02:10:03.246Z,56.34
2023-05-06T02:12:29.689Z,56.95
2023-05-06T02:14:55.800Z,56.64
2023-05-06T02:17:21.935Z,56.48
2023-05-06T02:19:48.208Z,56.11
2023-05-06T02:22:14.316Z,55.27
2023-05-06T02:24:40.433Z,55.54
2023-05-06T02:27:06.863Z,55.20
2023-05-06T02:29:32.994Z,55.96
2023-05-06T02:31:59.301Z,55.44
2023-05-06T02:34:25.522Z,55.25
2023-05-06T02:36:51.672Z,54.96
2023-05-06T02:39:17.809Z,54.91
2023-05-06T02:41:44.119Z,55.05
2023-05-06T02:44:10.230Z,54.92
2023-05-06T02:46:36.475Z,55.00
2023-05-06T02:49:02.695Z,58.06
2023-05-06T02:51:28.821Z,60.65
2023-05-06T02:53:54.945Z,59.92
2023-05-06T02:56:21.056Z,59.04
2023-05-06T02:58:47.189Z,58.42
2023-05-06T03:01:13.502Z,57.76
2023-05-06T03:03:39.648Z,57.30
2023-05-06T03:06:05.811Z,56.87
2023-05-06T03:08:31.939Z,57.09
2023-05-06T03:10:58.388Z,56.62
2023-05-06T03:13:24.572Z,56.42
2023-05-06T03:15:50.685Z,55.66
2023-05-06T03:18:16.926Z,55.65
2023-05-06T03:20:43.035Z,55.51
2023-05-06T03:23:09.460Z,55.45
2023-05-06T03:25:35.618Z,55.63
2023-05-06T03:28:01.724Z,54.97
2023-05-06T03:30:27.818Z,54.21
2023-05-06T03:32:53.962Z,54.09
2023-05-06T03:35:20.393Z,54.64
2023-05-06T03:37:46.574Z,54.16
2023-05-06T03:40:12.793Z,53.96
2023-05-06T03:42:38.934Z,53.56
2023-05-06T03:45:05.160Z,54.09
2023-05-06T03:47:31.317Z,53.76
2023-05-06T03:49:57.443Z,54.69
2023-05-06T03:52:23.578Z,54.02
2023-05-06T03:54:50.017Z,53.79
2023-05-06T03:57:16.105Z,54.69
2023-05-06T03:59:42.195Z,55.05
2023-05-06T04:02:08.441Z,56.08
2023-05-06T04:04:34.610Z,56.47
2023-05-06T04:07:00.750Z,57.11
2023-05-06T04:09:27.160Z,56.92
2023-05-06T04:11:53.359Z,56.84
2023-05-06T04:14:19.507Z,56.65
2023-05-06T04:16:45.783Z,57.29
2023-05-06T04:19:11.944Z,56.45
2023-05-06T04:21:38.097Z,56.28
2023-05-06T04:24:04.205Z,56.60
2023-05-06T04:26:30.321Z,56.52
2023-05-06T04:28:56.429Z,56.99
2023-05-06T04:31:22.567Z,57.22
2023-05-06T04:33:49.038Z,56.89
2023-05-06T04:36:15.482Z,56.89
2023-05-06T04:38:41.612Z,55.99
2023-05-06T04:41:07.846Z,56.24
2023-05-06T04:43:33.945Z,56.06
2023-05-06T04:46:00.151Z,55.79
2023-05-06T04:48:26.484Z,55.14
2023-05-06T04:50:52.618Z,55.85
2023-05-06T04:53:18.726Z,54.75
2023-05-06T04:55:45.216Z,55.74
2023-05-06T04:58:11.389Z,55.55
2023-05-06T05:00:37.488Z,54.92
2023-05-06T05:03:03.977Z,55.87
2023-05-06T05:05:30.177Z,54.43
2023-05-06T05:07:56.272Z,55.45
2023-05-06T05:10:22.487Z,54.90
2023-05-06T05:12:48.750Z,55.08
2023-05-06T05:15:14.901Z,55.62
2023-05-06T05:17:41.040Z,54.91
2023-05-06T05:20:07.165Z,55.37
2023-05-06T05:22:33.262Z,55.93
2023-05-06T05:24:59.378Z,55.31
2023-05-06T05:27:25.502Z,54.58
2023-05-06T05:29:51.698Z,54.89
2023-05-06T05:32:17.914Z,54.38
2023-05-06T05:34:44.006Z,54.38
2023-05-06T05:37:10.111Z,53.47
2023-05-06T05:39:36.323Z,54.00
2023-05-06T05:42:02.764Z,54.77
2023-05-06T05:44:28.860Z,54.02
2023-05-06T05:46:54.989Z,53.77
2023-05-06T05:49:21.249Z,54.83
2023-05-06T05:51:47.343Z,57.00
2023-05-06T05:54:13.455Z,57.09
2023-05-06T05:56:39.918Z,57.77
2023-05-06T05:59:06.056Z,56.52
2023-05-06T06:01:32.317Z,54.83
2023-05-06T06:03:58.829Z,54.75
2023-05-06T06:06:25.243Z,54.24
2023-05-06T06:08:51.494Z,53.55
2023-05-06T06:11:17.635Z,53.26
2023-05-06T06:13:43.790Z,53.18
2023-05-06T06:16:10.047Z,52.91
2023-05-06T06:18:36.221Z,52.38
2023-05-06T06:21:02.380Z,52.79
2023-05-06T06:23:28.466Z,52.87
2023-05-06T06:25:54.576Z,53.10
2023-05-06T06:28:20.821Z,52.55
2023-05-06T06:30:46.943Z,52.39
2023-05-06T06:33:13.092Z,52.12
2023-05-06T06:35:39.213Z,52.73
2023-05-06T06:38:07.773Z,53.39
2023-05-06T06:40:33.884Z,52.78
2023-05-06T06:42:59.992Z,49.82
2023-05-06T06:45:26.139Z,46.49
2023-05-06T06:47:52.276Z,47.17
2023-05-06T06:50:18.439Z,53.68
2023-05-06T06:52:44.549Z,53.55
2023-05-06T06:55:10.912Z,53.75
2023-05-06T06:57:37.517Z,54.89
2023-05-06T07:00:03.737Z,54.45
2023-05-06T07:02:29.915Z,53.71
2023-05-06T07:04:56.058Z,53.05
2023-05-06T07:07:22.164Z,52.66
2023-05-06T07:09:48.257Z,52.43
2023-05-06T07:12:14.703Z,51.10
2023-05-06T07:14:41.156Z,50.25
2023-05-06T07:17:07.340Z,49.36
2023-05-06T07:19:33.611Z,50.04
2023-05-06T07:21:59.840Z,49.74
2023-05-06T07:24:26.068Z,48.81
2023-05-06T07:26:52.192Z,47.54
2023-05-06T07:29:18.303Z,46.52
2023-05-06T07:31:44.413Z,45.42
2023-05-06T07:34:10.535Z,44.48
2023-05-06T07:36:38.665Z,43.21
2023-05-06T07:39:06.303Z,42.96
2023-05-06T07:41:32.545Z,42.61
2023-05-06T07:43:58.648Z,43.67
2023-05-06T07:46:24.858Z,43.28
2023-05-06T07:48:51.005Z,43.56
2023-05-06T07:51:17.113Z,42.65
2023-05-06T07:53:43.360Z,42.71
2023-05-06T07:56:09.612Z,42.17
2023-05-06T07:58:35.725Z,42.14
2023-05-06T08:01:01.839Z,41.99
2023-05-06T08:03:28.132Z,42.12
2023-05-06T08:05:54.534Z,40.38
2023-05-06T08:08:20.636Z,40.73
2023-05-06T08:10:46.764Z,41.41
2023-05-06T08:13:13.032Z,41.50
2023-05-06T08:15:39.221Z,40.60
2023-05-06T08:18:21.062Z,40.75
2023-05-06T08:20:48.745Z,38.48
2023-05-06T08:23:14.900Z,38.74
2023-05-06T08:25:41.023Z,38.48
2023-05-06T08:28:07.256Z,37.75
2023-05-06T08:30:33.381Z,38.40
2023-05-06T08:32:59.549Z,38.47
2023-05-06T08:35:25.700Z,38.50
2023-05-06T08:37:51.839Z,38.28
2023-05-06T08:40:17.931Z,37.04
2023-05-06T08:42:44.044Z,36.54
2023-05-06T08:45:10.569Z,34.78
2023-05-06T08:47:36.827Z,34.34
2023-05-06T08:50:03.062Z,35.70
2023-05-06T08:52:29.308Z,36.25
2023-05-06T08:54:55.414Z,36.54
2023-05-06T08:57:21.523Z,37.66
2023-05-06T08:59:47.606Z,38.80
2023-05-06T09:02:13.997Z,38.73
2023-05-06T09:04:40.128Z,39.91
2023-05-06T09:07:06.252Z,40.40
2023-05-06T09:09:32.384Z,42.36
2023-05-06T09:11:58.514Z,41.06
2023-05-06T09:14:24.648Z,41.12
2023-05-06T09:16:50.822Z,40.90
2023-05-06T09:19:16.977Z,40.24
2023-05-06T09:21:43.093Z,40.82
2023-05-06T09:24:09.213Z,41.02
2023-05-06T09:26:35.338Z,39.07
2023-05-06T09:29:01.434Z,40.04
2023-05-06T09:31:27.622Z,38.86
2023-05-06T09:33:53.787Z,37.45
2023-05-06T09:36:20.042Z,38.77
2023-05-06T09:38:46.151Z,39.25
2023-05-06T09:41:15.044Z,38.29
2023-05-06T09:43:41.141Z,38.23
2023-05-06T09:46:07.377Z,37.39
2023-05-06T09:48:33.555Z,34.69
2023-05-06T09:51:01.247Z,33.15
2023-05-06T09:53:27.637Z,34.80
2023-05-06T09:55:53.860Z,35.32
2023-05-06T09:58:19.965Z,32.05
2023-05-06T10:00:46.122Z,32.91
2023-05-06T10:03:12.729Z,31.61
2023-05-06T10:05:38.959Z,31.08
2023-05-06T10:08:05.076Z,31.14
2023-05-06T10:10:31.286Z,29.95
2023-05-06T10:12:57.511Z,32.06
2023-05-06T10:15:23.776Z,31.48
2023-05-06T10:17:50.009Z,32.43
2023-05-06T10:20:16.173Z,32.06
2023-05-06T10:22:42.273Z,33.10
2023-05-06T10:25:08.522Z,33.28
2023-05-06T10:27:34.874Z,32.78
2023-05-06T10:30:01.033Z,32.87
2023-05-06T10:32:27.244Z,33.36
2023-05-06T10:34:53.382Z,33.89
2023-05-06T10:37:19.509Z,33.79
2023-05-06T10:39:45.604Z,31.56
2023-05-06T10:42:11.717Z,32.91
2023-05-06T10:44:37.979Z,31.98
2023-05-06T10:47:04.120Z,30.66
2023-05-06T10:49:30.234Z,30.58
2023-05-06T10:51:56.400Z,31.88
2023-05-06T10:54:22.571Z,31.91
2023-05-06T10:56:48.774Z,34.10
2023-05-06T10:59:14.924Z,33.81
2023-05-06T11:01:41.089Z,32.87
2023-05-06T11:04:07.197Z,33.06
2023-05-06T11:06:33.309Z,34.07
2023-05-06T11:08:59.423Z,33.35
2023-05-06T11:11:25.533Z,33.04
2023-05-06T11:13:51.657Z,32.16
2023-05-06T11:16:17.794Z,33.10
2023-05-06T11:18:43.957Z,32.04
2023-05-06T11:21:10.098Z,33.40
2023-05-06T11:23:36.217Z,32.64
2023-05-06T11:26:02.361Z,31.72
2023-05-06T11:28:28.445Z,32.25
2023-05-06T11:30:54.608Z,32.59
2023-05-06T11:33:20.743Z,31.75
2023-05-06T11:35:46.912Z,32.33
2023-05-06T11:38:13.042Z,31.68
2023-05-06T11:40:39.162Z,34.10
2023-05-06T11:43:05.271Z,33.47
2023-05-06T11:45:31.395Z,32.55
2023-05-06T11:47:57.531Z,31.25
2023-05-06T11:50:23.711Z,30.29
2023-05-06T11:52:49.831Z,31.66
2023-05-06T11:55:15.943Z,30.37
2023-05-06T11:57:42.060Z,28.55
2023-05-06T12:00:08.382Z,28.16
2023-05-06T12:02:34.786Z,29.27
2023-05-06T12:05:00.988Z,28.46
2023-05-06T12:07:27.096Z,29.52
2023-05-06T12:09:53.211Z,29.78
2023-05-06T12:12:19.357Z,29.50
2023-05-06T12:14:45.472Z,29.27
2023-05-06T12:17:11.563Z,28.71
2023-05-06T12:19:37.655Z,28.22
2023-05-06T12:22:03.781Z,29.66
2023-05-06T12:24:29.919Z,30.30
2023-05-06T12:26:56.038Z,29.75
2023-05-06T12:29:22.131Z,30.16
2023-05-06T12:31:48.319Z,28.84
2023-05-06T12:34:14.476Z,29.62
2023-05-06T12:36:40.601Z,29.47
2023-05-06T12:39:06.766Z,29.33
2023-05-06T12:41:32.857Z,29.90
2023-05-06T12:43:58.963Z,31.51
2023-05-06T12:46:25.214Z,31.98
2023-05-06T12:48:51.480Z,31.53
2023-05-06T12:51:17.636Z,31.70
2023-05-06T12:53:43.721Z,30.03
2023-05-06T12:56:09.810Z,29.99
2023-05-06T12:58:35.913Z,28.69
2023-05-06T13:01:02.052Z,28.62
2023-05-06T13:03:28.306Z,27.46
2023-05-06T13:05:54.457Z,27.04
2023-05-06T13:08:20.559Z,27.38
2023-05-06T13:10:46.693Z,27.96
2023-05-06T13:13:12.871Z,28.27
2023-05-06T13:15:39.063Z,28.62
2023-05-06T13:18:05.210Z,28.08
2023-05-06T13:20:31.337Z,26.79
2023-05-06T13:22:57.443Z,27.86
2023-05-06T13:25:23.552Z,29.89
2023-05-06T13:27:49.651Z,28.80
2023-05-06T13:30:15.804Z,29.58
2023-05-06T13:32:42.056Z,28.13
2023-05-06T13:35:08.316Z,26.75
2023-05-06T13:37:34.578Z,28.68
2023-05-06T13:40:00.693Z,28.72
2023-05-06T13:42:26.811Z,29.28
2023-05-06T13:44:52.921Z,30.35
2023-05-06T13:47:19.215Z,29.21
2023-05-06T13:49:45.341Z,28.11
2023-05-06T13:52:11.448Z,27.31
2023-05-06T13:54:37.578Z,29.78
2023-05-06T13:57:03.709Z,29.86
2023-05-06T13:59:29.798Z,27.24
2023-05-06T14:01:56.418Z,28.47
2023-05-06T14:04:22.545Z,27.81
2023-05-06T14:06:48.641Z,27.36
2023-05-06T14:09:15.078Z,29.61
2023-05-06T14:11:41.191Z,30.55
2023-05-06T14:14:07.300Z,30.52
2023-05-06T14:16:33.472Z,31.00
2023-05-06T14:18:59.582Z,32.24
2023-05-06T14:21:25.698Z,32.08
2023-05-06T14:23:51.838Z,31.40
2023-05-06T14:26:17.959Z,32.76
2023-05-06T14:28:44.074Z,31.30
2023-05-06T14:31:10.270Z,33.26
2023-05-06T14:33:36.537Z,32.78
2023-05-06T14:36:02.626Z,32.83
2023-05-06T14:38:28.756Z,33.08
2023-05-06T14:40:54.845Z,33.54
2023-05-06T14:43:20.964Z,33.83
2023-05-06T14:45:47.103Z,34.49
2023-05-06T14:48:13.271Z,34.19
2023-05-06T14:50:39.501Z,34.21
2023-05-06T14:53:05.628Z,33.69
2023-05-06T14:55:31.728Z,33.07
2023-05-06T14:57:58.917Z,33.08
2023-05-06T15:00:25.028Z,32.28
2023-05-06T15:02:51.202Z,31.91
2023-05-06T15:05:17.503Z,32.04
2023-05-06T15:07:43.625Z,31.37
2023-05-06T15:10:09.744Z,30.71
2023-05-06T15:12:35.945Z,31.48
2023-05-06T15:15:02.052Z,31.82
2023-05-06T15:17:28.166Z,32.20
2023-05-06T15:19:54.290Z,31.27
2023-05-06T15:22:20.419Z,33.08
2023-05-06T15:24:46.526Z,33.30
2023-05-06T15:27:12.633Z,34.50
2023-05-06T15:29:38.717Z,33.40
2023-05-06T15:32:04.890Z,32.89
2023-05-06T15:34:31.045Z,33.37
2023-05-06T15:36:57.164Z,33.83
2023-05-06T15:39:23.279Z,34.34
2023-05-06T15:41:49.365Z,34.32
2023-05-06T15:44:16.427Z,32.66
2023-05-06T15:46:42.732Z,34.07
2023-05-06T15:49:39.731Z,33.51
2023-05-06T15:51:54.933Z,33.92
2023-05-06T15:54:21.015Z,33.87
2023-05-06T15:56:47.582Z,33.21
2023-05-06T15:59:13.841Z,33.96
2023-05-06T16:04:16.963Z,33.48
2023-05-06T16:06:43.300Z,32.93
2023-05-06T16:09:09.424Z,34.86
2023-05-06T16:11:35.516Z,34.50
2023-05-06T16:14:01.630Z,34.43
2023-05-06T16:16:27.761Z,34.08
2023-05-06T16:18:53.886Z,35.53
2023-05-06T16:21:20.010Z,35.77
2023-05-06T16:23:46.208Z,35.43
2023-05-06T16:26:12.324Z,35.89
2023-05-06T16:28:40.099Z,36.85
2023-05-06T16:31:06.507Z,37.05
2023-05-06T16:33:32.650Z,37.03
2023-05-06T16:35:58.740Z,36.83
2023-05-06T16:38:24.844Z,37.15
2023-05-06T16:40:50.974Z,37.71
2023-05-06T16:43:17.084Z,37.09
2023-05-06T16:45:43.188Z,37.40
2023-05-06T16:48:09.442Z,37.32
2023-05-06T16:50:35.567Z,38.05
2023-05-06T16:53:01.674Z,38.06
2023-05-06T16:55:27.770Z,37.41
2023-05-06T16:57:53.871Z,37.22
2023-05-06T17:00:19.950Z,37.18
2023-05-06T17:02:46.103Z,36.98
2023-05-06T17:05:12.252Z,36.82
2023-05-06T17:07:38.376Z,36.71
2023-05-06T17:10:04.578Z,35.92
2023-05-06T17:12:30.704Z,35.83
2023-05-06T17:14:56.846Z,36.59
2023-05-06T17:17:22.968Z,35.77
2023-05-06T17:19:49.201Z,34.72
2023-05-06T17:22:15.298Z,36.30
2023-05-06T17:24:41.384Z,35.41
2023-05-06T17:27:07.511Z,36.38
2023-05-06T17:29:33.605Z,37.28
2023-05-06T17:31:59.731Z,37.25
2023-05-06T17:34:25.866Z,36.16
2023-05-06T17:36:52.008Z,36.45
2023-05-06T17:39:18.117Z,36.21
2023-05-06T17:41:44.223Z,36.82
2023-05-06T17:44:10.353Z,37.01
2023-05-06T17:46:36.652Z,36.35
2023-05-06T17:49:05.833Z,36.85
2023-05-06T17:51:31.958Z,36.99
2023-05-06T17:53:58.061Z,36.75
2023-05-06T17:56:24.153Z,35.86
2023-05-06T17:58:50.264Z,36.70
2023-05-06T18:01:16.419Z,37.07
2023-05-06T18:03:42.661Z,38.43
2023-05-06T18:06:08.837Z,37.42
2023-05-06T18:08:34.954Z,37.60
2023-05-06T18:11:01.052Z,38.37
2023-05-06T18:13:27.286Z,38.49
2023-05-06T18:15:53.560Z,37.57
2023-05-06T18:18:19.697Z,37.24
2023-05-06T18:20:45.809Z,38.00
2023-05-06T18:23:11.906Z,38.04
2023-05-06T18:25:38.004Z,37.72
2023-05-06T18:28:04.155Z,39.85
2023-05-06T18:30:30.474Z,40.55
2023-05-06T18:32:56.908Z,40.29
2023-05-06T18:35:23.167Z,40.64
2023-05-06T18:37:49.273Z,40.27
2023-05-06T18:40:15.386Z,40.52
2023-05-06T18:42:41.503Z,40.80
2023-05-06T18:45:07.839Z,40.76
2023-05-06T18:47:34.094Z,41.00
2023-05-06T18:50:00.202Z,41.96
2023-05-06T18:52:26.318Z,42.05
2023-05-06T18:54:52.407Z,41.92
2023-05-06T18:57:19.651Z,42.21
2023-05-06T18:59:45.811Z,42.41
2023-05-06T19:02:11.933Z,42.77
2023-05-06T19:04:38.128Z,43.24
2023-05-06T19:07:04.341Z,43.68
2023-05-06T19:09:30.417Z,43.98
2023-05-06T19:11:56.529Z,45.00
2023-05-06T19:14:23.660Z,44.21
2023-05-06T19:16:51.572Z,43.29
2023-05-06T19:19:17.725Z,44.57
2023-05-06T19:21:43.869Z,45.41
2023-05-06T19:24:09.980Z,44.73
2023-05-06T19:26:36.094Z,45.14
2023-05-06T19:29:02.216Z,44.71
2023-05-06T19:31:28.328Z,44.91
2023-05-06T19:33:54.453Z,44.97
2023-05-06T19:36:20.577Z,45.67
2023-05-06T19:38:46.706Z,44.59
2023-05-06T19:41:12.982Z,43.50
2023-05-06T19:43:39.069Z,43.48
2023-05-06T19:46:05.198Z,43.89
2023-05-06T19:48:31.345Z,44.22
2023-05-06T19:50:57.453Z,44.23
2023-05-06T19:53:23.550Z,44.00
2023-05-06T19:55:49.668Z,44.65
2023-05-06T19:58:15.784Z,43.62
2023-05-06T20:00:41.872Z,43.61
2023-05-06T20:03:08.104Z,43.44
2023-05-06T20:05:34.330Z,43.84
2023-05-06T20:08:00.459Z,44.01
2023-05-06T20:10:26.560Z,44.38
2023-05-06T20:12:53.312Z,43.13
2023-05-06T20:15:20.056Z,42.27
2023-05-06T20:17:46.218Z,43.77
2023-05-06T20:20:12.352Z,44.75
2023-05-06T20:22:38.470Z,44.51
2023-05-06T20:25:04.556Z,45.28
2023-05-06T20:27:30.699Z,44.83
2023-05-06T20:29:56.830Z,47.02
2023-05-06T20:32:23.012Z,50.50
2023-05-06T20:34:49.146Z,49.58
2023-05-06T20:37:15.249Z,49.32
2023-05-06T20:39:41.368Z,49.85
2023-05-06T20:42:08.147Z,49.07
2023-05-06T20:44:35.382Z,48.38
2023-05-06T20:47:01.683Z,47.40
2023-05-06T20:49:27.810Z,46.75
2023-05-06T20:51:53.910Z,47.46
2023-05-06T20:54:20.036Z,46.79
2023-05-06T20:56:46.173Z,46.27
2023-05-06T20:59:12.316Z,47.11
2023-05-06T21:01:38.518Z,48.33
2023-05-06T21:04:04.848Z,48.35
2023-05-06T21:06:30.988Z,48.02
2023-05-06T21:08:57.091Z,48.32
2023-05-06T21:11:23.214Z,48.67
2023-05-06T21:13:50.199Z,48.82
2023-05-06T21:16:16.567Z,48.91
2023-05-06T21:18:42.684Z,49.26
2023-05-06T21:21:08.829Z,49.48
2023-05-06T21:23:34.937Z,48.58
2023-05-06T21:26:01.064Z,48.96
2023-05-06T21:28:27.188Z,49.24
2023-05-06T21:30:53.330Z,47.60
2023-05-06T21:33:19.476Z,49.16
2023-05-06T21:35:45.656Z,48.96
2023-05-06T21:38:11.748Z,48.57
2023-05-06T21:40:37.838Z,48.63
2023-05-06T21:43:03.957Z,50.43
2023-05-06T21:45:30.052Z,51.00
2023-05-06T21:47:56.198Z,50.58
2023-05-06T21:50:22.316Z,49.36
2023-05-06T21:52:48.414Z,50.23
2023-05-06T21:55:14.529Z,49.00
2023-05-06T21:57:40.629Z,49.58
2023-05-06T22:00:06.740Z,50.09
2023-05-06T22:02:32.909Z,50.31
2023-05-06T22:04:59.070Z,50.44
2023-05-06T22:07:25.201Z,51.40
2023-05-06T22:09:51.298Z,51.37
2023-05-06T22:12:17.378Z,51.61
2023-05-06T22:14:43.486Z,52.08
2023-05-06T22:17:09.614Z,51.56
2023-05-06T22:19:35.722Z,51.80
2023-05-06T22:22:02.310Z,51.52
2023-05-06T22:24:28.419Z,49.52
2023-05-06T22:26:54.524Z,50.83
2023-05-06T22:29:20.637Z,50.16
2023-05-06T22:31:46.756Z,49.85
2023-05-06T22:34:13.052Z,50.42
2023-05-06T22:36:39.163Z,49.18
2023-05-06T22:39:05.260Z,50.37
2023-05-06T22:41:31.508Z,50.99
2023-05-06T22:43:57.607Z,50.96
2023-05-06T22:46:23.838Z,51.25
2023-05-06T22:48:50.029Z,51.81
2023-05-06T22:51:16.159Z,51.29
2023-05-06T22:53:42.284Z,50.23
2023-05-06T22:56:08.406Z,51.93
2023-05-06T22:58:34.510Z,52.05
2023-05-06T23:01:00.670Z,52.46
2023-05-06T23:03:26.827Z,52.56
2023-05-06T23:05:53.125Z,52.53
2023-05-06T23:08:19.206Z,52.19
2023-05-06T23:10:45.331Z,51.78
2023-05-06T23:13:11.492Z,51.05
2023-05-06T23:15:37.629Z,51.25
2023-05-06T23:18:03.819Z,51.29
2023-05-06T23:20:29.928Z,51.39
2023-05-06T23:22:56.054Z,51.89
2023-05-06T23:25:22.153Z,52.52
2023-05-06T23:27:48.238Z,51.59
2023-05-06T23:30:14.356Z,52.89
2023-05-06T23:32:40.507Z,53.43
2023-05-06T23:35:06.653Z,54.46
2023-05-06T23:37:32.800Z,54.23
2023-05-06T23:39:58.917Z,54.35
2023-05-06T23:42:25.678Z,54.54
2023-05-06T23:44:51.916Z,54.50
2023-05-06T23:47:18.017Z,54.52
2023-05-06T23:49:44.132Z,54.13
2023-05-06T23:52:10.240Z,53.81
2023-05-06T23:54:36.360Z,53.68
2023-05-06T23:57:02.484Z,54.00
2023-05-06T23:59:28.588Z,53.88
